createdAt,value
2017-08-03T00:01:26.371Z,15.50
2017-08-03T00:03:53.925Z,16.20
2017-08-03T00:06:21.540Z,16.40
2017-08-03T00:08:49.062Z,16.30
2017-08-03T00:11:16.671Z,15.70
2017-08-03T00:13:44.190Z,16.17
2017-08-03T00:16:11.724Z,14.53
2017-08-03T00:18:39.260Z,16.13
2017-08-03T00:21:07.571Z,17.10
2017-08-03T00:23:35.086Z,16.40
2017-08-03T00:26:02.607Z,17.43
2017-08-03T00:28:30.115Z,16.83
2017-08-03T00:30:59.020Z,16.70
2017-08-03T00:33:26.527Z,16.50
2017-08-03T00:35:54.138Z,16.60
2017-08-03T00:38:21.698Z,16.40
2017-08-03T00:40:49.228Z,16.33
2017-08-03T00:43:17.499Z,16.83
2017-08-03T00:45:45.887Z,17.10
2017-08-03T00:48:14.187Z,17.50
2017-08-03T00:50:41.699Z,15.83
2017-08-03T00:53:09.303Z,15.83
2017-08-03T00:55:37.478Z,16.80
2017-08-03T00:58:05.008Z,16.77
2017-08-03T01:00:33.316Z,16.33
2017-08-03T01:03:00.876Z,17.20
2017-08-03T01:05:28.944Z,15.90
2017-08-03T01:07:56.508Z,15.93
2017-08-03T01:10:24.060Z,16.47
2017-08-03T01:12:51.574Z,16.37
2017-08-03T01:15:19.098Z,15.93
2017-08-03T01:17:47.277Z,16.20
2017-08-03T01:20:14.799Z,16.50
2017-08-03T01:22:42.306Z,16.40
2017-08-03T01:25:10.091Z,17.10
2017-08-03T01:27:37.699Z,16.13
2017-08-03T01:30:05.227Z,16.57
2017-08-03T01:32:33.507Z,13.97
2017-08-03T01:35:01.902Z,15.23
2017-08-03T01:37:29.411Z,16.90
2017-08-03T01:39:56.919Z,14.90
2017-08-03T01:42:24.451Z,15.50
2017-08-03T01:44:52.723Z,15.77
2017-08-03T01:47:20.419Z,15.87
2017-08-03T01:49:48.324Z,17.10
2017-08-03T01:52:15.859Z,15.90
2017-08-03T01:54:43.371Z,15.60
2017-08-03T01:57:11.680Z,16.80
2017-08-03T01:59:39.190Z,17.50
2017-08-03T02:02:06.723Z,16.63
2017-08-03T02:04:34.235Z,17.73
2017-08-03T02:07:02.519Z,17.90
2017-08-03T02:09:30.047Z,17.20
2017-08-03T02:11:58.342Z,16.30
2017-08-03T02:14:26.631Z,16.30
2017-08-03T02:16:54.135Z,16.90
2017-08-03T02:19:21.749Z,15.60
2017-08-03T02:21:49.859Z,15.83
2017-08-03T02:24:17.374Z,14.93
2017-08-03T02:26:45.390Z,15.57
2017-08-03T02:29:13.015Z,16.17
2017-08-03T02:31:40.539Z,16.20
2017-08-03T02:34:08.818Z,17.87
2017-08-03T02:36:36.402Z,16.73
2017-08-03T02:39:03.909Z,16.50
2017-08-03T02:41:31.541Z,16.70
2017-08-03T02:43:59.090Z,15.57
2017-08-03T02:46:26.615Z,17.33
2017-08-03T02:48:54.897Z,15.60
2017-08-03T02:51:23.187Z,16.43
2017-08-03T02:53:50.695Z,16.43
2017-08-03T02:56:18.226Z,17.10
2017-08-03T02:58:45.734Z,16.67
2017-08-03T03:01:13.331Z,14.57
2017-08-03T03:03:40.884Z,16.07
2017-08-03T03:06:08.455Z,16.87
2017-08-03T03:08:35.975Z,16.80
2017-08-03T03:11:04.630Z,17.50
2017-08-03T03:13:32.154Z,16.40
2017-08-03T03:15:59.694Z,16.30
2017-08-03T03:18:27.271Z,16.03
2017-08-03T03:20:54.793Z,14.97
2017-08-03T03:23:22.322Z,15.83
2017-08-03T03:25:49.849Z,15.73
2017-08-03T03:28:17.368Z,14.53
2017-08-03T03:30:45.665Z,14.83
2017-08-03T03:33:13.408Z,17.67
2017-08-03T03:35:41.714Z,16.50
2017-08-03T03:38:09.222Z,16.80
2017-08-03T03:40:36.739Z,17.20
2017-08-03T03:43:05.070Z,16.80
2017-08-03T03:45:32.662Z,17.00
2017-08-03T03:48:00.433Z,15.60
2017-08-03T03:50:27.986Z,15.43
2017-08-03T03:52:55.561Z,15.13
2017-08-03T03:55:23.112Z,15.00
2017-08-03T03:57:50.634Z,15.37
2017-08-03T04:00:18.139Z,14.57
2017-08-03T04:02:45.667Z,14.57
2017-08-03T04:05:13.623Z,13.80
2017-08-03T04:07:41.910Z,13.80
2017-08-03T04:10:10.189Z,15.30
2017-08-03T04:12:38.584Z,15.30
2017-08-03T04:15:06.095Z,15.33
2017-08-03T04:17:33.623Z,15.70
2017-08-03T04:20:01.126Z,14.83
2017-08-03T04:22:30.354Z,14.87
2017-08-03T04:24:57.863Z,14.40
2017-08-03T04:27:26.279Z,14.13
2017-08-03T04:29:54.123Z,15.33
2017-08-03T04:32:21.628Z,16.70
2017-08-03T04:34:49.157Z,15.03
2017-08-03T04:37:17.426Z,15.90
2017-08-03T04:39:45.108Z,15.30
2017-08-03T04:42:12.676Z,16.40
2017-08-03T04:44:40.198Z,16.20
2017-08-03T04:47:07.705Z,15.70
2017-08-03T04:49:35.227Z,16.50
2017-08-03T04:52:03.573Z,16.63
2017-08-03T04:54:31.096Z,15.50
2017-08-03T04:56:58.610Z,16.13
2017-08-03T04:59:27.014Z,15.87
2017-08-03T05:01:54.578Z,14.93
2017-08-03T05:04:22.138Z,15.27
2017-08-03T05:06:49.707Z,15.57
2017-08-03T05:09:17.205Z,16.50
2017-08-03T05:11:44.822Z,15.40
2017-08-03T05:14:12.331Z,15.73
2017-08-03T05:16:39.931Z,15.50
2017-08-03T05:19:07.486Z,15.03
2017-08-03T05:21:35.003Z,15.20
2017-08-03T05:24:02.508Z,15.17
2017-08-03T05:26:30.778Z,15.83
2017-08-03T05:28:59.110Z,15.47
2017-08-03T05:31:26.714Z,15.63
2017-08-03T05:33:54.308Z,15.97
2017-08-03T05:36:21.955Z,17.30
2017-08-03T05:38:49.494Z,15.40
2017-08-03T05:41:17.087Z,16.70
2017-08-03T05:43:45.232Z,16.97
2017-08-03T05:46:12.767Z,17.53
2017-08-03T05:48:41.066Z,16.70
2017-08-03T05:51:09.234Z,16.53
2017-08-03T05:53:36.794Z,16.50
2017-08-03T05:56:04.307Z,16.93
2017-08-03T05:58:31.908Z,16.00
2017-08-03T06:00:59.410Z,16.57
2017-08-03T06:03:26.934Z,17.33
2017-08-03T06:05:54.438Z,16.40
2017-08-03T06:08:21.963Z,17.20
2017-08-03T06:10:49.466Z,16.07
2017-08-03T06:13:16.994Z,16.27
2017-08-03T06:15:44.498Z,16.03
2017-08-03T06:18:12.790Z,16.50
2017-08-03T06:20:40.310Z,15.60
2017-08-03T06:23:07.814Z,15.20
2017-08-03T06:25:35.334Z,14.20
2017-08-03T06:28:02.844Z,16.00
2017-08-03T06:30:30.391Z,15.10
2017-08-03T06:32:57.942Z,13.77
2017-08-03T06:35:25.463Z,15.53
2017-08-03T06:37:52.971Z,16.57
2017-08-03T06:40:21.223Z,15.80
2017-08-03T06:42:49.495Z,15.90
2017-08-03T06:45:17.783Z,14.90
2017-08-03T06:47:45.286Z,17.70
2017-08-03T06:50:12.806Z,16.97
2017-08-03T06:52:40.311Z,17.80
2017-08-03T06:55:07.860Z,15.77
2017-08-03T06:57:35.367Z,16.73
2017-08-03T07:00:03.683Z,16.73
2017-08-03T07:02:31.215Z,19.13
2017-08-03T07:04:58.729Z,18.30
2017-08-03T07:07:26.259Z,19.90
2017-08-03T07:09:53.786Z,17.53
2017-08-03T07:12:21.311Z,20.73
2017-08-03T07:14:48.909Z,19.47
2017-08-03T07:17:16.440Z,18.10
2017-08-03T07:19:44.710Z,19.60
2017-08-03T07:22:13.002Z,18.90
2017-08-03T07:24:40.727Z,20.33
2017-08-03T07:27:08.251Z,20.40
2017-08-03T07:29:35.762Z,19.93
2017-08-03T07:32:03.351Z,20.17
2017-08-03T07:34:30.858Z,20.50
2017-08-03T07:36:58.367Z,21.07
2017-08-03T07:39:25.891Z,20.97
2017-08-03T07:41:53.399Z,20.67
2017-08-03T07:44:20.919Z,21.17
2017-08-03T07:46:49.200Z,20.60
2017-08-03T07:49:17.598Z,21.87
2017-08-03T07:51:45.107Z,20.90
2017-08-03T07:54:12.635Z,19.47
2017-08-03T07:56:40.151Z,21.20
2017-08-03T07:59:08.455Z,21.50
2017-08-03T08:01:36.010Z,20.17
2017-08-03T08:04:03.519Z,20.77
2017-08-03T08:06:31.438Z,21.27
2017-08-03T08:08:58.952Z,19.30
2017-08-03T08:11:26.557Z,22.87
2017-08-03T08:13:54.675Z,20.57
2017-08-03T08:16:22.282Z,22.40
2017-08-03T08:18:49.950Z,20.20
2017-08-03T08:21:17.479Z,20.70
2017-08-03T08:23:45.754Z,22.53
2017-08-03T08:26:14.031Z,22.00
2017-08-03T08:28:42.328Z,20.60
2017-08-03T08:31:09.896Z,21.50
2017-08-03T08:33:37.427Z,23.23
2017-08-03T08:36:05.726Z,19.47
2017-08-03T08:38:33.263Z,23.77
2017-08-03T08:41:02.267Z,20.80
2017-08-03T08:43:29.808Z,20.40
2017-08-03T08:45:58.087Z,20.67
2017-08-03T08:48:26.367Z,22.60
2017-08-03T08:50:54.661Z,19.67
2017-08-03T08:53:22.175Z,21.50
2017-08-03T08:55:49.699Z,23.67
2017-08-03T08:58:17.216Z,23.40
2017-08-03T09:00:45.619Z,21.20
2017-08-03T09:03:13.127Z,22.77
2017-08-03T09:05:40.655Z,23.80
2017-08-03T09:08:08.176Z,21.37
2017-08-03T09:10:35.751Z,20.37
2017-08-03T09:13:03.795Z,21.30
2017-08-03T09:15:32.068Z,21.10
2017-08-03T09:18:00.371Z,19.70
2017-08-03T09:20:28.787Z,19.03
2017-08-03T09:22:56.315Z,19.30
2017-08-03T09:25:23.819Z,18.40
2017-08-03T09:27:51.431Z,16.10
2017-08-03T09:30:19.091Z,17.43
2017-08-03T09:32:46.611Z,17.33
2017-08-03T09:35:14.122Z,17.17
2017-08-03T09:37:42.142Z,14.00
2017-08-03T09:40:09.975Z,13.30
2017-08-03T09:42:37.483Z,15.70
2017-08-03T09:45:05.876Z,14.33
2017-08-03T09:47:33.395Z,14.20
2017-08-03T09:50:00.919Z,15.40
2017-08-03T09:52:28.454Z,12.10
2017-08-03T09:54:55.975Z,11.30
2017-08-03T09:57:23.566Z,11.97
2017-08-03T09:59:51.127Z,13.10
2017-08-03T10:02:18.794Z,12.90
2017-08-03T10:04:46.659Z,11.90
2017-08-03T10:07:14.189Z,13.10
2017-08-03T10:09:42.490Z,12.10
2017-08-03T10:12:10.023Z,12.57
2017-08-03T10:14:38.335Z,12.30
2017-08-03T10:17:05.863Z,10.87
2017-08-03T10:19:34.143Z,11.90
2017-08-03T10:22:02.435Z,12.10
2017-08-03T10:24:29.940Z,12.23
2017-08-03T10:26:57.463Z,11.97
2017-08-03T10:29:25.011Z,11.90
2017-08-03T10:31:52.622Z,11.60
2017-08-03T10:34:20.135Z,11.33
2017-08-03T10:36:47.688Z,11.87
2017-08-03T10:39:15.215Z,11.20
2017-08-03T10:41:43.497Z,11.10
2017-08-03T10:44:11.803Z,12.00
2017-08-03T10:46:39.354Z,11.60
2017-08-03T10:49:06.919Z,10.87
2017-08-03T10:51:35.294Z,11.70
2017-08-03T10:54:02.859Z,10.43
2017-08-03T10:56:30.620Z,11.90
2017-08-03T10:58:58.150Z,11.33
2017-08-03T11:01:26.450Z,11.63
2017-08-03T11:03:53.985Z,10.50
2017-08-03T11:06:21.496Z,10.00
2017-08-03T11:08:49.008Z,10.27
2017-08-03T11:11:17.395Z,10.97
2017-08-03T11:13:44.902Z,9.40
2017-08-03T11:16:12.424Z,9.47
2017-08-03T11:18:39.928Z,9.37
2017-08-03T11:21:07.542Z,8.90
2017-08-03T11:23:35.043Z,8.57
2017-08-03T11:26:02.558Z,7.93
2017-08-03T11:28:30.115Z,8.87
2017-08-03T11:30:57.647Z,8.67
2017-08-03T11:33:25.164Z,8.50
2017-08-03T11:35:52.671Z,9.80
2017-08-03T11:38:20.194Z,8.17
2017-08-03T11:40:47.687Z,8.30
2017-08-03T11:43:15.267Z,8.67
2017-08-03T11:45:42.828Z,8.33
2017-08-03T11:48:10.362Z,10.03
2017-08-03T11:50:37.868Z,8.67
2017-08-03T11:53:05.398Z,8.50
2017-08-03T11:55:33.219Z,8.37
2017-08-03T11:58:00.821Z,8.80
2017-08-03T12:00:28.383Z,8.23
2017-08-03T12:02:55.887Z,8.93
2017-08-03T12:05:23.406Z,8.60
2017-08-03T12:07:50.911Z,9.33
2017-08-03T12:10:18.511Z,8.60
2017-08-03T12:12:46.019Z,9.53
2017-08-03T12:15:13.631Z,8.50
2017-08-03T12:17:41.136Z,8.77
2017-08-03T12:20:08.744Z,8.40
2017-08-03T12:22:36.251Z,8.27
2017-08-03T12:25:03.868Z,11.10
2017-08-03T12:27:31.375Z,11.23
2017-08-03T12:29:58.893Z,10.83
2017-08-03T12:32:26.439Z,10.13
2017-08-03T12:34:54.003Z,10.40
2017-08-03T12:37:21.559Z,11.10
2017-08-03T12:39:49.788Z,10.83
2017-08-03T12:42:17.384Z,11.00
2017-08-03T12:44:44.894Z,11.20
2017-08-03T12:47:12.516Z,10.23
2017-08-03T12:49:40.027Z,9.57
2017-08-03T12:52:07.637Z,10.83
2017-08-03T12:54:35.160Z,10.20
2017-08-03T12:57:04.044Z,9.37
2017-08-03T12:59:32.319Z,9.60
2017-08-03T13:02:00.632Z,9.57
2017-08-03T13:04:28.197Z,9.70
2017-08-03T13:06:55.712Z,9.53
2017-08-03T13:09:24.009Z,9.23
2017-08-03T13:11:51.514Z,9.73
2017-08-03T13:14:19.138Z,9.60
2017-08-03T13:16:46.651Z,9.13
2017-08-03T13:19:14.171Z,9.00
2017-08-03T13:21:42.154Z,9.20
2017-08-03T13:24:09.694Z,9.90
2017-08-03T13:26:37.203Z,8.90
2017-08-03T13:29:04.712Z,9.70
2017-08-03T13:31:32.235Z,7.57
2017-08-03T13:33:59.825Z,9.40
2017-08-03T13:36:27.351Z,8.03
2017-08-03T13:38:54.937Z,9.13
2017-08-03T13:41:22.490Z,9.47
2017-08-03T13:43:50.007Z,8.60
2017-08-03T13:46:17.527Z,8.70
2017-08-03T13:48:45.074Z,8.40
2017-08-03T13:51:12.598Z,8.77
2017-08-03T13:53:41.339Z,8.27
2017-08-03T13:56:08.847Z,10.23
2017-08-03T13:58:36.441Z,8.50
2017-08-03T14:01:03.999Z,8.60
2017-08-03T14:03:31.550Z,8.00
2017-08-03T14:05:59.059Z,9.13
2017-08-03T14:08:26.588Z,8.30
2017-08-03T14:10:54.095Z,8.40
2017-08-03T14:13:22.387Z,9.40
2017-08-03T14:15:49.895Z,9.13
2017-08-03T14:18:17.426Z,8.03
2017-08-03T14:20:45.447Z,8.37
2017-08-03T14:23:13.163Z,8.43
2017-08-03T14:25:41.411Z,8.83
2017-08-03T14:28:09.291Z,8.50
2017-08-03T14:30:36.816Z,9.43
2017-08-03T14:33:05.083Z,8.30
2017-08-03T14:35:32.612Z,9.37
2017-08-03T14:38:00.114Z,9.60
2017-08-03T14:40:28.326Z,8.13
2017-08-03T14:42:55.822Z,8.73
2017-08-03T14:45:23.436Z,8.70
2017-08-03T14:47:50.943Z,9.10
2017-08-03T14:50:19.375Z,9.97
2017-08-03T14:52:46.926Z,8.70
2017-08-03T14:55:14.748Z,8.80
2017-08-03T14:57:42.354Z,8.40
2017-08-03T15:00:09.914Z,8.27
2017-08-03T15:02:37.468Z,8.70
2017-08-03T15:05:04.975Z,8.63
2017-08-03T15:07:32.492Z,8.17
2017-08-03T15:10:00.051Z,10.10
2017-08-03T15:12:28.024Z,9.33
2017-08-03T15:14:55.575Z,8.87
2017-08-03T15:17:23.434Z,8.23
2017-08-03T15:19:51.044Z,8.57
2017-08-03T15:22:18.556Z,9.80
2017-08-03T15:24:46.059Z,9.37
2017-08-03T15:27:13.582Z,10.23
2017-08-03T15:29:41.083Z,8.73
2017-08-03T15:32:08.603Z,9.27
2017-08-03T15:34:36.110Z,8.73
2017-08-03T15:37:03.639Z,8.40
2017-08-03T15:39:31.145Z,8.40
2017-08-03T15:41:59.434Z,9.40
2017-08-03T15:44:26.935Z,8.47
2017-08-03T15:46:54.454Z,8.50
2017-08-03T15:49:22.027Z,8.93
2017-08-03T15:51:49.897Z,8.47
2017-08-03T15:54:17.411Z,7.57
2017-08-03T15:56:44.919Z,7.13
2017-08-03T15:59:12.454Z,7.77
2017-08-03T16:01:39.958Z,9.17
2017-08-03T16:04:07.483Z,8.10
2017-08-03T16:06:34.988Z,8.47
2017-08-03T16:09:02.514Z,8.13
2017-08-03T16:11:30.508Z,9.40
2017-08-03T16:13:58.007Z,8.50
2017-08-03T16:16:25.528Z,7.63
2017-08-03T16:18:53.031Z,9.20
2017-08-03T16:21:20.555Z,8.77
2017-08-03T16:23:48.831Z,8.33
2017-08-03T16:26:17.113Z,8.87
2017-08-03T16:28:44.699Z,8.20
2017-08-03T16:31:12.224Z,8.07
2017-08-03T16:33:41.380Z,8.10
2017-08-03T16:36:08.914Z,7.13
2017-08-03T16:38:36.419Z,8.03
2017-08-03T16:41:03.914Z,7.43
2017-08-03T16:43:31.435Z,7.23
2017-08-03T16:45:59.039Z,6.57
2017-08-03T16:48:26.608Z,6.93
2017-08-03T16:50:54.161Z,7.10
2017-08-03T16:53:21.687Z,6.67
2017-08-03T16:55:49.955Z,6.50
2017-08-03T16:58:17.482Z,6.40
2017-08-03T17:00:44.978Z,7.40
2017-08-03T17:03:12.576Z,6.43
2017-08-03T17:05:40.135Z,9.53
2017-08-03T17:08:08.435Z,7.17
2017-08-03T17:10:35.955Z,6.37
2017-08-03T17:13:03.460Z,5.77
2017-08-03T17:15:31.083Z,6.20
2017-08-03T17:17:58.586Z,5.73
2017-08-03T17:20:26.103Z,5.90
2017-08-03T17:22:53.659Z,5.50
2017-08-03T17:25:21.183Z,7.47
2017-08-03T17:27:49.450Z,6.70
2017-08-03T17:30:17.094Z,6.63
2017-08-03T17:32:44.599Z,5.50
2017-08-03T17:35:12.184Z,5.63
2017-08-03T17:37:39.730Z,6.13
2017-08-03T17:40:07.296Z,6.03
2017-08-03T17:42:34.820Z,5.93
2017-08-03T17:45:03.093Z,6.90
2017-08-03T17:47:31.381Z,5.90
2017-08-03T17:49:58.888Z,5.17
2017-08-03T17:52:26.519Z,5.60
2017-08-03T17:54:54.069Z,6.27
2017-08-03T17:57:21.635Z,5.80
2017-08-03T17:59:50.731Z,6.43
2017-08-03T18:02:18.251Z,6.10
2017-08-03T18:04:46.527Z,6.10
2017-08-03T18:07:14.051Z,5.63
2017-08-03T18:09:41.583Z,5.23
2017-08-03T18:12:09.083Z,5.93
2017-08-03T18:14:36.604Z,6.23
2017-08-03T18:17:04.106Z,5.57
2017-08-03T18:19:31.715Z,6.10
2017-08-03T18:21:59.265Z,5.90
2017-08-03T18:24:26.836Z,6.47
2017-08-03T18:26:54.437Z,5.33
2017-08-03T18:29:22.017Z,5.83
2017-08-03T18:31:49.537Z,5.50
2017-08-03T18:34:17.083Z,5.30
2017-08-03T18:36:44.634Z,6.53
2017-08-03T18:39:12.191Z,6.40
2017-08-03T18:41:39.710Z,6.77
2017-08-03T18:44:07.228Z,5.93
2017-08-03T18:46:34.763Z,6.53
2017-08-03T18:49:02.331Z,7.77
2017-08-03T18:51:29.856Z,6.80
2017-08-03T18:53:58.126Z,6.60
2017-08-03T18:56:26.441Z,6.60
2017-08-03T18:58:53.996Z,8.10
2017-08-03T19:01:21.547Z,7.30
2017-08-03T19:03:49.052Z,7.20
2017-08-03T19:06:16.671Z,7.67
2017-08-03T19:08:44.178Z,6.83
2017-08-03T19:11:11.733Z,7.90
2017-08-03T19:13:39.251Z,7.80
2017-08-03T19:16:07.019Z,6.20
2017-08-03T19:18:34.603Z,7.50
2017-08-03T19:21:02.129Z,6.40
2017-08-03T19:23:29.678Z,7.57
2017-08-03T19:25:57.247Z,7.10
2017-08-03T19:28:24.768Z,8.17
2017-08-03T19:30:53.078Z,8.53
2017-08-03T19:33:20.596Z,7.40
2017-08-03T19:35:48.190Z,7.33
2017-08-03T19:38:16.467Z,7.20
2017-08-03T19:40:44.088Z,7.47
2017-08-03T19:43:11.734Z,6.83
2017-08-03T19:45:39.266Z,7.57
2017-08-03T19:48:06.772Z,7.60
2017-08-03T19:50:35.117Z,7.60
2017-08-03T19:53:02.624Z,8.00
2017-08-03T19:55:30.909Z,8.23
2017-08-03T19:57:58.883Z,7.13
2017-08-03T20:00:26.411Z,8.60
2017-08-03T20:02:53.918Z,7.63
2017-08-03T20:05:21.443Z,7.97
2017-08-03T20:07:53.609Z,7.90
2017-08-03T20:10:21.911Z,7.73
2017-08-03T20:12:49.551Z,6.77
2017-08-03T20:15:17.764Z,7.87
2017-08-03T20:17:45.286Z,7.30
2017-08-03T20:20:12.792Z,7.30
2017-08-03T20:22:40.489Z,8.13
2017-08-03T20:25:08.759Z,7.33
2017-08-03T20:27:36.333Z,7.50
2017-08-03T20:30:04.627Z,6.83
2017-08-03T20:32:32.167Z,8.40
2017-08-03T20:35:00.508Z,8.80
2017-08-03T20:37:28.859Z,7.83
2017-08-03T20:39:56.364Z,7.90
2017-08-03T20:42:23.875Z,7.80
2017-08-03T20:44:51.416Z,7.80
2017-08-03T20:47:18.962Z,8.13
2017-08-03T20:49:46.547Z,7.83
2017-08-03T20:52:14.053Z,7.00
2017-08-03T20:54:41.652Z,8.20
2017-08-03T20:57:09.212Z,8.27
2017-08-03T20:59:36.770Z,6.73
2017-08-03T21:02:04.892Z,8.13
2017-08-03T21:04:32.394Z,7.63
2017-08-03T21:06:59.919Z,6.87
2017-08-03T21:09:27.423Z,7.57
2017-08-03T21:11:54.976Z,6.87
2017-08-03T21:14:22.480Z,8.20
2017-08-03T21:16:50.002Z,6.40
2017-08-03T21:19:17.503Z,6.90
2017-08-03T21:21:45.028Z,7.03
2017-08-03T21:24:12.854Z,7.50
2017-08-03T21:26:41.347Z,7.40
2017-08-03T21:29:08.860Z,8.17
2017-08-03T21:31:36.466Z,7.20
2017-08-03T21:34:03.983Z,6.03
2017-08-03T21:36:31.591Z,5.60
2017-08-03T21:38:59.142Z,5.60
2017-08-03T21:41:26.650Z,5.60
2017-08-03T21:43:54.172Z,6.10
2017-08-03T21:46:21.683Z,5.80
2017-08-03T21:48:49.979Z,6.33
2017-08-03T21:51:18.274Z,5.17
2017-08-03T21:53:45.837Z,5.80
2017-08-03T21:56:13.343Z,5.70
2017-08-03T21:58:41.383Z,5.10
2017-08-03T22:01:17.815Z,5.10
2017-08-03T22:03:45.351Z,5.47
2017-08-03T22:06:12.854Z,6.00
2017-08-03T22:08:40.351Z,5.47
2017-08-03T22:11:07.963Z,5.27
2017-08-03T22:13:35.524Z,5.47
2017-08-03T22:16:03.497Z,7.40
2017-08-03T22:18:30.999Z,6.30
2017-08-03T22:20:58.608Z,6.00
2017-08-03T22:23:26.114Z,6.23
2017-08-03T22:25:53.627Z,5.53
2017-08-03T22:28:21.179Z,6.47
2017-08-03T22:30:49.571Z,5.60
2017-08-03T22:33:17.076Z,5.20
2017-08-03T22:35:44.607Z,5.93
2017-08-03T22:38:12.117Z,5.97
2017-08-03T22:40:40.151Z,5.83
2017-08-03T22:43:07.764Z,5.97
2017-08-03T22:45:35.324Z,6.70
2017-08-03T22:48:02.887Z,28.30
2017-08-03T22:50:30.791Z,6.60
2017-08-03T22:52:58.306Z,6.50
2017-08-03T22:55:25.867Z,5.43
2017-08-03T22:57:53.427Z,6.57
2017-08-03T23:00:20.964Z,7.37
2017-08-03T23:02:49.254Z,5.17
2017-08-03T23:05:16.768Z,6.10
2017-08-03T23:07:45.119Z,6.70
2017-08-03T23:10:12.627Z,6.43
2017-08-03T23:12:40.895Z,6.37
2017-08-03T23:15:08.716Z,6.03
2017-08-03T23:17:36.219Z,5.90
2017-08-03T23:20:03.811Z,5.40
2017-08-03T23:22:31.487Z,6.20
2017-08-03T23:24:59.007Z,6.27
2017-08-03T23:27:27.279Z,7.70
2017-08-03T23:29:55.563Z,5.40
2017-08-03T23:32:23.824Z,4.97
2017-08-03T23:34:51.365Z,4.67
2017-08-03T23:37:18.974Z,4.67
2017-08-03T23:39:46.540Z,6.30
2017-08-03T23:42:14.055Z,6.53
2017-08-03T23:44:41.561Z,5.00
2017-08-03T23:47:09.079Z,5.97
2017-08-03T23:49:38.035Z,6.60
2017-08-03T23:52:05.555Z,5.40
2017-08-03T23:54:33.063Z,5.57
2017-08-03T23:57:00.680Z,6.60
2017-08-03T23:59:28.695Z,5.30
